Sabugueira, Spain

9:39 AM CEST on March 28, 2017 (GMT +0200)
EA1NK | | Change Station

Elev 1109 ft 42.90 °N, 8.53 °W | Updated 28 seconds ago

Scattered Clouds
Scattered Clouds
53.2 °F
Feels Like 53.2 °F
N
5.4
Wind Variable Wind from South
Gusts 9.2 mph

Today
High -- | Low -- °F
--% Chance of Precip.
Yesterday
High -- | Low -- °F
Precip. -- in
Pressure 30.21 in
Visibility 6.2 miles
Clouds Scattered Clouds 1500 ft
Scattered Clouds 2300 ft
Dew Point 47 °F
Humidity 80%
Rainfall 0.00 in
Snow Depth Not available.
8:22 AM 8:55 PM
New Moon, 0% visible
METAR LEST 280730Z 19007KT 160V230 9999 SCT015 SCT023 10/08 Q1023 NOSIG
Pressure 30.21 in
Visibility 6.2 miles
Clouds Scattered Clouds 1500 ft
Scattered Clouds 2300 ft
Dew Point 47 °F
Humidity 80%
Rainfall 0.00 in
Snow Depth Not available.
8:22 AM 8:55 PM
New Moon, 0% visible
METAR LEST 280730Z 19007KT 160V230 9999 SCT015 SCT023 10/08 Q1023 NOSIG

Get Severe Weather Alerts

Thanks for signing up!

Be on the lookout for a verification email in your inbox.

You'll start receiving the daily forecast at 8 AM.

×

10-Day Weather Forecast

×

Almanac

Astronomy

Mar. 28, 2017 Rise Set
Actual Time
Civil Twilight
Nautical Twilight
Astronomical Twilight
Moon
Length of Visible Light
Length of Day
Tomorrow will be .
, % of the Moon is Illuminated

Today's Extremes

Country Highs Country Lows

Community

WunderPhotos

Upload Photos

1,962,540 photos uploaded!

WunderBlog® & News

Nearby

Air Quality

  Air Quality AQ Index Pollutant
Not available.

Snow Depth

Station Depth Elevation

Earthquake Activity

City Distance Mag. Time & Date
Minimum magnitude displayed is 2.5.

Earthquake Activity

City Distance Mag. Time & Date
Minimum magnitude displayed is 2.5.

Coastal Water Temperatures

Place Temperature

Stations

Nearby Weather Stations

Station Location Temp. Windchill Dew Point Humidity Wind Precip. Elev Updated Type